sensor_id;sensor_type;location;lat;lon;timestamp;temperature;humidity
18880;DHT22;9572;52.378;13.404;2023-02-20T00:02:00;1.70;99.90
18880;DHT22;9572;52.378;13.404;2023-02-20T00:04:27;1.60;99.90
18880;DHT22;9572;52.378;13.404;2023-02-20T00:06:54;1.50;99.90
18880;DHT22;9572;52.378;13.404;2023-02-20T00:09:22;1.50;99.90
18880;DHT22;9572;52.378;13.404;2023-02-20T00:11:49;1.60;99.90
18880;DHT22;9572;52.378;13.404;2023-02-20T00:14:16;1.60;99.90
18880;DHT22;9572;52.378;13.404;2023-02-20T00:16:45;1.60;99.90
18880;DHT22;9572;52.378;13.404;2023-02-20T00:19:12;1.60;99.90
18880;DHT22;9572;52.378;13.404;2023-02-20T00:21:44;1.70;99.90
18880;DHT22;9572;52.378;13.404;2023-02-20T00:24:12;1.80;99.90
18880;DHT22;9572;52.378;13.404;2023-02-20T00:26:45;1.90;99.90
18880;DHT22;9572;52.378;13.404;2023-02-20T00:29:14;2.00;99.90
18880;DHT22;9572;52.378;13.404;2023-02-20T00:31:42;2.30;99.90
18880;DHT22;9572;52.378;13.404;2023-02-20T00:34:08;2.20;99.90
18880;DHT22;9572;52.378;13.404;2023-02-20T00:36:35;2.20;99.90
18880;DHT22;9572;52.378;13.404;2023-02-20T00:39:02;2.20;99.90
18880;DHT22;9572;52.378;13.404;2023-02-20T00:41:29;2.10;99.90
18880;DHT22;9572;52.378;13.404;2023-02-20T00:43:57;2.10;99.90
18880;DHT22;9572;52.378;13.404;2023-02-20T00:46:24;2.10;99.90
18880;DHT22;9572;52.378;13.404;2023-02-20T00:48:51;2.10;99.90
18880;DHT22;9572;52.378;13.404;2023-02-20T00:51:18;2.20;99.90
18880;DHT22;9572;52.378;13.404;2023-02-20T00:53:45;2.20;99.90
18880;DHT22;9572;52.378;13.404;2023-02-20T00:56:12;2.10;99.90
18880;DHT22;9572;52.378;13.404;2023-02-20T00:58:39;2.10;99.90
18880;DHT22;9572;52.378;13.404;2023-02-20T01:01:07;2.10;99.90
18880;DHT22;9572;52.378;13.404;2023-02-20T01:03:34;2.00;99.90
18880;DHT22;9572;52.378;13.404;2023-02-20T01:06:01;2.00;99.90
18880;DHT22;9572;52.378;13.404;2023-02-20T01:08:28;1.90;99.90
18880;DHT22;9572;52.378;13.404;2023-02-20T01:10:55;1.90;99.90
18880;DHT22;9572;52.378;13.404;2023-02-20T01:13:22;1.80;99.90
18880;DHT22;9572;52.378;13.404;2023-02-20T01:15:49;1.80;99.90
18880;DHT22;9572;52.378;13.404;2023-02-20T01:18:17;1.80;99.90
18880;DHT22;9572;52.378;13.404;2023-02-20T01:20:44;1.90;99.90
18880;DHT22;9572;52.378;13.404;2023-02-20T01:23:11;2.00;99.90
18880;DHT22;9572;52.378;13.404;2023-02-20T01:25:38;2.00;99.90
18880;DHT22;9572;52.378;13.404;2023-02-20T01:28:05;2.10;99.90
18880;DHT22;9572;52.378;13.404;2023-02-20T01:30:32;2.20;99.90
18880;DHT22;9572;52.378;13.404;2023-02-20T01:32:59;2.30;99.90
18880;DHT22;9572;52.378;13.404;2023-02-20T01:35:27;2.20;99.90
18880;DHT22;9572;52.378;13.404;2023-02-20T01:37:56;2.10;99.90
18880;DHT22;9572;52.378;13.404;2023-02-20T01:40:25;2.30;99.90
18880;DHT22;9572;52.378;13.404;2023-02-20T01:42:53;2.40;99.90
18880;DHT22;9572;52.378;13.404;2023-02-20T01:45:33;2.40;99.90
18880;DHT22;9572;52.378;13.404;2023-02-20T01:48:01;2.30;99.90
18880;DHT22;9572;52.378;13.404;2023-02-20T01:50:32;2.40;99.90
18880;DHT22;9572;52.378;13.404;2023-02-20T01:53:08;2.30;99.90
18880;DHT22;9572;52.378;13.404;2023-02-20T01:55:38;2.40;99.90
18880;DHT22;9572;52.378;13.404;2023-02-20T01:58:10;2.40;99.90
18880;DHT22;9572;52.378;13.404;2023-02-20T02:00:38;2.50;99.90
18880;DHT22;9572;52.378;13.404;2023-02-20T02:03:07;2.50;99.90
18880;DHT22;9572;52.378;13.404;2023-02-20T02:05:37;2.50;99.90
18880;DHT22;9572;52.378;13.404;2023-02-20T02:08:06;2.50;99.90
18880;DHT22;9572;52.378;13.404;2023-02-20T02:10:37;2.60;99.90
18880;DHT22;9572;52.378;13.404;2023-02-20T02:13:06;2.60;99.90
18880;DHT22;9572;52.378;13.404;2023-02-20T02:15:33;2.70;99.90
18880;DHT22;9572;52.378;13.404;2023-02-20T02:18:32;2.50;99.90
18880;DHT22;9572;52.378;13.404;2023-02-20T02:24:40;2.70;99.90
18880;DHT22;9572;52.378;13.404;2023-02-20T02:27:42;2.70;99.90
18880;DHT22;9572;52.378;13.404;2023-02-20T02:30:37;2.70;99.90
18880;DHT22;9572;52.378;13.404;2023-02-20T02:33:39;2.70;99.90
18880;DHT22;9572;52.378;13.404;2023-02-20T02:36:26;2.70;99.90
18880;DHT22;9572;52.378;13.404;2023-02-20T02:39:01;2.70;99.90
18880;DHT22;9572;52.378;13.404;2023-02-20T02:41:37;2.70;99.90
18880;DHT22;9572;52.378;13.404;2023-02-20T02:44:11;2.80;99.90
18880;DHT22;9572;52.378;13.404;2023-02-20T02:46:42;2.90;99.90
18880;DHT22;9572;52.378;13.404;2023-02-20T02:49:16;3.00;99.90
18880;DHT22;9572;52.378;13.404;2023-02-20T02:51:47;3.10;99.90
18880;DHT22;9572;52.378;13.404;2023-02-20T02:54:17;3.30;99.90
18880;DHT22;9572;52.378;13.404;2023-02-20T02:56:47;3.40;99.90
18880;DHT22;9572;52.378;13.404;2023-02-20T02:59:17;3.50;99.90
18880;DHT22;9572;52.378;13.404;2023-02-20T03:01:49;3.60;99.90
18880;DHT22;9572;52.378;13.404;2023-02-20T03:04:16;3.60;99.90
18880;DHT22;9572;52.378;13.404;2023-02-20T03:06:52;3.60;99.90
18880;DHT22;9572;52.378;13.404;2023-02-20T03:09:25;3.70;99.90
18880;DHT22;9572;52.378;13.404;2023-02-20T03:11:54;3.80;99.90
18880;DHT22;9572;52.378;13.404;2023-02-20T03:14:25;3.80;99.90
18880;DHT22;9572;52.378;13.404;2023-02-20T03:17:14;3.80;99.90
18880;DHT22;9572;52.378;13.404;2023-02-20T03:19:46;3.90;99.90
18880;DHT22;9572;52.378;13.404;2023-02-20T03:22:18;3.90;99.90
18880;DHT22;9572;52.378;13.404;2023-02-20T03:24:50;3.90;99.90
18880;DHT22;9572;52.378;13.404;2023-02-20T03:27:28;3.90;99.90
18880;DHT22;9572;52.378;13.404;2023-02-20T03:30:06;3.90;99.90
18880;DHT22;9572;52.378;13.404;2023-02-20T03:32:36;3.90;99.90
18880;DHT22;9572;52.378;13.404;2023-02-20T03:35:23;4.00;99.90
18880;DHT22;9572;52.378;13.404;2023-02-20T03:38:10;4.00;99.90
18880;DHT22;9572;52.378;13.404;2023-02-20T03:40:57;4.00;99.90
18880;DHT22;9572;52.378;13.404;2023-02-20T03:43:43;4.00;99.90
18880;DHT22;9572;52.378;13.404;2023-02-20T03:46:16;4.10;99.90
18880;DHT22;9572;52.378;13.404;2023-02-20T03:48:50;4.10;99.90
18880;DHT22;9572;52.378;13.404;2023-02-20T03:51:20;4.10;99.90
18880;DHT22;9572;52.378;13.404;2023-02-20T03:53:49;4.20;99.90
18880;DHT22;9572;52.378;13.404;2023-02-20T03:56:19;4.20;99.90
18880;DHT22;9572;52.378;13.404;2023-02-20T03:58:53;4.20;99.90
18880;DHT22;9572;52.378;13.404;2023-02-20T04:01:22;4.30;99.90
18880;DHT22;9572;52.378;13.404;2023-02-20T04:03:51;4.30;99.90
18880;DHT22;9572;52.378;13.404;2023-02-20T04:06:21;4.40;99.90
18880;DHT22;9572;52.378;13.404;2023-02-20T04:08:55;4.50;99.90
18880;DHT22;9572;52.378;13.404;2023-02-20T04:11:27;4.50;99.90
18880;DHT22;9572;52.378;13.404;2023-02-20T04:13:55;4.50;99.90
18880;DHT22;9572;52.378;13.404;2023-02-20T04:16:23;4.60;99.90
18880;DHT22;9572;52.378;13.404;2023-02-20T04:18:50;4.60;99.90
18880;DHT22;9572;52.378;13.404;2023-02-20T04:21:22;4.60;99.90
18880;DHT22;9572;52.378;13.404;2023-02-20T04:24:05;4.70;99.90
18880;DHT22;9572;52.378;13.404;2023-02-20T04:26:33;4.70;99.90
18880;DHT22;9572;52.378;13.404;2023-02-20T04:29:01;4.70;99.90
18880;DHT22;9572;52.378;13.404;2023-02-20T04:31:28;4.70;99.90
18880;DHT22;9572;52.378;13.404;2023-02-20T04:33:55;4.70;99.90
18880;DHT22;9572;52.378;13.404;2023-02-20T04:36:22;4.80;99.90
18880;DHT22;9572;52.378;13.404;2023-02-20T04:38:51;4.80;99.90
18880;DHT22;9572;52.378;13.404;2023-02-20T04:41:18;4.90;99.90
18880;DHT22;9572;52.378;13.404;2023-02-20T04:43:45;4.90;99.90
18880;DHT22;9572;52.378;13.404;2023-02-20T04:46:13;4.90;99.90
18880;DHT22;9572;52.378;13.404;2023-02-20T04:48:40;4.90;99.90
18880;DHT22;9572;52.378;13.404;2023-02-20T04:51:07;5.00;99.90
18880;DHT22;9572;52.378;13.404;2023-02-20T04:53:35;5.00;99.90
18880;DHT22;9572;52.378;13.404;2023-02-20T04:56:04;5.00;99.90
18880;DHT22;9572;52.378;13.404;2023-02-20T04:58:30;5.00;99.90
18880;DHT22;9572;52.378;13.404;2023-02-20T05:01:01;5.10;99.90
18880;DHT22;9572;52.378;13.404;2023-02-20T05:03:28;5.10;99.90
18880;DHT22;9572;52.378;13.404;2023-02-20T05:05:55;5.10;99.90
18880;DHT22;9572;52.378;13.404;2023-02-20T05:08:22;5.20;99.90
18880;DHT22;9572;52.378;13.404;2023-02-20T05:10:49;5.20;99.90
18880;DHT22;9572;52.378;13.404;2023-02-20T05:13:17;5.20;99.90
18880;DHT22;9572;52.378;13.404;2023-02-20T05:15:44;5.20;99.90
18880;DHT22;9572;52.378;13.404;2023-02-20T05:18:11;5.20;99.90
18880;DHT22;9572;52.378;13.404;2023-02-20T05:20:37;5.30;99.90
18880;DHT22;9572;52.378;13.404;2023-02-20T05:23:22;5.30;99.90
18880;DHT22;9572;52.378;13.404;2023-02-20T05:25:48;5.30;99.90
18880;DHT22;9572;52.378;13.404;2023-02-20T05:28:17;5.30;99.90
18880;DHT22;9572;52.378;13.404;2023-02-20T05:30:44;5.40;99.90
18880;DHT22;9572;52.378;13.404;2023-02-20T05:33:10;5.40;99.90
18880;DHT22;9572;52.378;13.404;2023-02-20T05:35:37;5.40;99.90
18880;DHT22;9572;52.378;13.404;2023-02-20T05:38:05;5.40;99.90
18880;DHT22;9572;52.378;13.404;2023-02-20T05:40:32;5.40;99.90
18880;DHT22;9572;52.378;13.404;2023-02-20T05:42:58;5.40;99.90
18880;DHT22;9572;52.378;13.404;2023-02-20T05:45:27;5.50;99.90
18880;DHT22;9572;52.378;13.404;2023-02-20T05:47:53;5.50;99.90
18880;DHT22;9572;52.378;13.404;2023-02-20T05:50:20;5.40;99.90
18880;DHT22;9572;52.378;13.404;2023-02-20T05:52:47;5.50;99.90
18880;DHT22;9572;52.378;13.404;2023-02-20T05:55:14;5.50;99.90
18880;DHT22;9572;52.378;13.404;2023-02-20T05:57:41;5.40;99.90
18880;DHT22;9572;52.378;13.404;2023-02-20T06:00:10;5.50;99.90
18880;DHT22;9572;52.378;13.404;2023-02-20T06:02:39;5.50;99.90
18880;DHT22;9572;52.378;13.404;2023-02-20T06:05:06;5.50;99.90
18880;DHT22;9572;52.378;13.404;2023-02-20T06:07:33;5.40;99.90
18880;DHT22;9572;52.378;13.404;2023-02-20T06:10:00;5.50;99.90
18880;DHT22;9572;52.378;13.404;2023-02-20T06:12:27;5.50;99.90
18880;DHT22;9572;52.378;13.404;2023-02-20T06:14:54;5.50;99.90
18880;DHT22;9572;52.378;13.404;2023-02-20T06:17:21;5.50;99.90
18880;DHT22;9572;52.378;13.404;2023-02-20T06:19:50;5.40;99.90
18880;DHT22;9572;52.378;13.404;2023-02-20T06:22:17;5.50;99.90
18880;DHT22;9572;52.378;13.404;2023-02-20T06:24:44;5.50;99.90
18880;DHT22;9572;52.378;13.404;2023-02-20T06:27:11;5.50;99.90
18880;DHT22;9572;52.378;13.404;2023-02-20T06:29:38;5.50;99.90
18880;DHT22;9572;52.378;13.404;2023-02-20T06:32:05;5.50;99.90
18880;DHT22;9572;52.378;13.404;2023-02-20T06:34:32;5.60;99.90
18880;DHT22;9572;52.378;13.404;2023-02-20T06:37:00;5.60;99.90
18880;DHT22;9572;52.378;13.404;2023-02-20T06:39:28;5.60;99.90
18880;DHT22;9572;52.378;13.404;2023-02-20T06:41:55;5.70;99.90
18880;DHT22;9572;52.378;13.404;2023-02-20T06:44:22;5.60;99.90
18880;DHT22;9572;52.378;13.404;2023-02-20T06:46:49;5.70;99.90
18880;DHT22;9572;52.378;13.404;2023-02-20T06:49:16;5.70;99.90
18880;DHT22;9572;52.378;13.404;2023-02-20T06:51:43;5.70;99.90
18880;DHT22;9572;52.378;13.404;2023-02-20T06:54:11;5.70;99.90
18880;DHT22;9572;52.378;13.404;2023-02-20T06:56:38;5.80;99.90
18880;DHT22;9572;52.378;13.404;2023-02-20T06:59:06;5.80;99.90
18880;DHT22;9572;52.378;13.404;2023-02-20T07:01:38;5.80;99.90
18880;DHT22;9572;52.378;13.404;2023-02-20T07:04:05;5.80;99.90
18880;DHT22;9572;52.378;13.404;2023-02-20T07:06:32;5.80;99.90
18880;DHT22;9572;52.378;13.404;2023-02-20T07:08:59;5.90;99.90
18880;DHT22;9572;52.378;13.404;2023-02-20T07:11:27;5.90;99.90
18880;DHT22;9572;52.378;13.404;2023-02-20T07:13:54;5.90;99.90
18880;DHT22;9572;52.378;13.404;2023-02-20T07:16:22;5.90;99.90
18880;DHT22;9572;52.378;13.404;2023-02-20T07:18:49;6.00;99.90
18880;DHT22;9572;52.378;13.404;2023-02-20T07:21:16;6.00;99.90
18880;DHT22;9572;52.378;13.404;2023-02-20T07:23:43;6.00;99.90
18880;DHT22;9572;52.378;13.404;2023-02-20T07:26:16;6.00;99.90
18880;DHT22;9572;52.378;13.404;2023-02-20T07:28:45;6.00;99.90
18880;DHT22;9572;52.378;13.404;2023-02-20T07:31:11;6.10;99.90
18880;DHT22;9572;52.378;13.404;2023-02-20T07:33:38;6.10;99.90
18880;DHT22;9572;52.378;13.404;2023-02-20T07:36:07;6.10;99.90
18880;DHT22;9572;52.378;13.404;2023-02-20T07:38:34;6.10;99.90
18880;DHT22;9572;52.378;13.404;2023-02-20T07:41:01;6.20;99.90
18880;DHT22;9572;52.378;13.404;2023-02-20T07:43:28;6.20;99.90
18880;DHT22;9572;52.378;13.404;2023-02-20T07:45:56;6.30;99.90
18880;DHT22;9572;52.378;13.404;2023-02-20T07:48:23;6.30;99.90
18880;DHT22;9572;52.378;13.404;2023-02-20T07:50:50;6.40;99.90
18880;DHT22;9572;52.378;13.404;2023-02-20T07:53:19;6.40;99.90
18880;DHT22;9572;52.378;13.404;2023-02-20T07:55:46;6.50;99.90
18880;DHT22;9572;52.378;13.404;2023-02-20T07:58:14;6.50;99.90
18880;DHT22;9572;52.378;13.404;2023-02-20T08:00:41;6.50;99.90
18880;DHT22;9572;52.378;13.404;2023-02-20T08:03:09;6.50;99.90
18880;DHT22;9572;52.378;13.404;2023-02-20T08:05:36;6.60;99.90
18880;DHT22;9572;52.378;13.404;2023-02-20T08:08:03;6.60;99.90
18880;DHT22;9572;52.378;13.404;2023-02-20T08:10:30;6.70;99.90
18880;DHT22;9572;52.378;13.404;2023-02-20T08:12:57;6.70;99.90
18880;DHT22;9572;52.378;13.404;2023-02-20T08:15:24;6.70;99.90
18880;DHT22;9572;52.378;13.404;2023-02-20T08:17:51;6.70;99.90
18880;DHT22;9572;52.378;13.404;2023-02-20T08:20:20;6.70;99.90
18880;DHT22;9572;52.378;13.404;2023-02-20T08:22:48;6.80;99.90
18880;DHT22;9572;52.378;13.404;2023-02-20T08:25:16;6.90;99.90
18880;DHT22;9572;52.378;13.404;2023-02-20T08:27:44;6.80;99.90
18880;DHT22;9572;52.378;13.404;2023-02-20T08:30:13;6.90;99.90
18880;DHT22;9572;52.378;13.404;2023-02-20T08:32:40;6.90;99.90
18880;DHT22;9572;52.378;13.404;2023-02-20T08:35:07;7.00;99.90
18880;DHT22;9572;52.378;13.404;2023-02-20T08:37:35;7.00;99.90
18880;DHT22;9572;52.378;13.404;2023-02-20T08:40:03;7.00;99.90
18880;DHT22;9572;52.378;13.404;2023-02-20T08:42:32;7.10;99.90
18880;DHT22;9572;52.378;13.404;2023-02-20T08:44:59;7.10;99.90
18880;DHT22;9572;52.378;13.404;2023-02-20T08:47:26;7.10;99.90
18880;DHT22;9572;52.378;13.404;2023-02-20T08:49:53;7.20;99.90
18880;DHT22;9572;52.378;13.404;2023-02-20T08:52:20;7.20;99.90
18880;DHT22;9572;52.378;13.404;2023-02-20T08:54:48;7.20;99.90
18880;DHT22;9572;52.378;13.404;2023-02-20T08:57:16;7.30;99.90
18880;DHT22;9572;52.378;13.404;2023-02-20T08:59:43;7.30;99.90
18880;DHT22;9572;52.378;13.404;2023-02-20T09:02:15;7.40;99.90
18880;DHT22;9572;52.378;13.404;2023-02-20T09:04:43;7.40;99.90
18880;DHT22;9572;52.378;13.404;2023-02-20T09:07:11;7.50;99.90
18880;DHT22;9572;52.378;13.404;2023-02-20T09:09:38;7.50;99.90
18880;DHT22;9572;52.378;13.404;2023-02-20T09:12:07;7.60;99.90
18880;DHT22;9572;52.378;13.404;2023-02-20T09:14:34;7.60;99.90
18880;DHT22;9572;52.378;13.404;2023-02-20T09:17:01;7.70;99.90
18880;DHT22;9572;52.378;13.404;2023-02-20T09:19:28;7.70;99.90
18880;DHT22;9572;52.378;13.404;2023-02-20T09:21:55;7.70;99.90
18880;DHT22;9572;52.378;13.404;2023-02-20T09:24:22;7.80;99.90
18880;DHT22;9572;52.378;13.404;2023-02-20T09:26:49;7.80;99.90
18880;DHT22;9572;52.378;13.404;2023-02-20T09:29:17;7.80;99.90
18880;DHT22;9572;52.378;13.404;2023-02-20T09:31:44;7.80;99.90
18880;DHT22;9572;52.378;13.404;2023-02-20T09:34:11;7.90;99.90
18880;DHT22;9572;52.378;13.404;2023-02-20T09:36:38;7.90;99.90
18880;DHT22;9572;52.378;13.404;2023-02-20T09:39:04;7.90;99.90
18880;DHT22;9572;52.378;13.404;2023-02-20T09:41:41;8.00;99.90
18880;DHT22;9572;52.378;13.404;2023-02-20T09:44:14;8.10;99.90
18880;DHT22;9572;52.378;13.404;2023-02-20T09:46:46;8.20;99.90
18880;DHT22;9572;52.378;13.404;2023-02-20T09:49:17;8.20;99.90
18880;DHT22;9572;52.378;13.404;2023-02-20T09:51:50;8.30;99.90
18880;DHT22;9572;52.378;13.404;2023-02-20T09:54:23;8.40;99.90
18880;DHT22;9572;52.378;13.404;2023-02-20T09:56:55;8.40;99.90
18880;DHT22;9572;52.378;13.404;2023-02-20T09:59:25;8.50;99.90
18880;DHT22;9572;52.378;13.404;2023-02-20T10:01:56;8.50;99.90
18880;DHT22;9572;52.378;13.404;2023-02-20T10:04:29;8.60;99.90
18880;DHT22;9572;52.378;13.404;2023-02-20T10:07:03;8.60;99.90
18880;DHT22;9572;52.378;13.404;2023-02-20T10:09:32;8.70;99.90
18880;DHT22;9572;52.378;13.404;2023-02-20T10:12:05;8.70;99.90
18880;DHT22;9572;52.378;13.404;2023-02-20T10:15:06;8.90;99.90
18880;DHT22;9572;52.378;13.404;2023-02-20T10:17:43;9.00;99.90
18880;DHT22;9572;52.378;13.404;2023-02-20T10:20:19;9.10;99.90
18880;DHT22;9572;52.378;13.404;2023-02-20T10:22:55;9.10;99.90
18880;DHT22;9572;52.378;13.404;2023-02-20T10:25:27;9.20;99.90
18880;DHT22;9572;52.378;13.404;2023-02-20T10:28:02;9.30;99.90
18880;DHT22;9572;52.378;13.404;2023-02-20T10:30:32;9.40;99.90
18880;DHT22;9572;52.378;13.404;2023-02-20T10:33:13;9.50;99.90
18880;DHT22;9572;52.378;13.404;2023-02-20T10:35:46;9.50;99.90
18880;DHT22;9572;52.378;13.404;2023-02-20T10:38:18;9.60;99.90
18880;DHT22;9572;52.378;13.404;2023-02-20T10:40:48;9.60;99.90
18880;DHT22;9572;52.378;13.404;2023-02-20T10:43:19;9.70;99.90
18880;DHT22;9572;52.378;13.404;2023-02-20T10:45:54;9.70;99.90
18880;DHT22;9572;52.378;13.404;2023-02-20T10:48:29;9.80;99.90
18880;DHT22;9572;52.378;13.404;2023-02-20T10:51:02;9.80;99.90
18880;DHT22;9572;52.378;13.404;2023-02-20T10:53:36;9.90;99.90
18880;DHT22;9572;52.378;13.404;2023-02-20T10:56:09;10.00;99.90
18880;DHT22;9572;52.378;13.404;2023-02-20T10:58:40;10.00;99.90
18880;DHT22;9572;52.378;13.404;2023-02-20T11:01:10;10.10;99.90
18880;DHT22;9572;52.378;13.404;2023-02-20T11:03:44;10.00;99.90
18880;DHT22;9572;52.378;13.404;2023-02-20T11:06:15;10.10;99.90
18880;DHT22;9572;52.378;13.404;2023-02-20T11:08:44;10.10;99.90
18880;DHT22;9572;52.378;13.404;2023-02-20T11:11:31;10.10;99.90
18880;DHT22;9572;52.378;13.404;2023-02-20T11:13:59;10.10;99.90
18880;DHT22;9572;52.378;13.404;2023-02-20T11:16:30;10.10;99.90
18880;DHT22;9572;52.378;13.404;2023-02-20T11:19:07;10.10;99.90
18880;DHT22;9572;52.378;13.404;2023-02-20T11:21:39;10.00;99.90
18880;DHT22;9572;52.378;13.404;2023-02-20T11:24:25;10.00;99.90
18880;DHT22;9572;52.378;13.404;2023-02-20T11:26:56;10.10;99.90
18880;DHT22;9572;52.378;13.404;2023-02-20T11:29:24;10.10;99.90
18880;DHT22;9572;52.378;13.404;2023-02-20T11:31:52;10.10;99.90
18880;DHT22;9572;52.378;13.404;2023-02-20T11:34:22;10.10;99.90
18880;DHT22;9572;52.378;13.404;2023-02-20T11:36:52;10.20;99.90
18880;DHT22;9572;52.378;13.404;2023-02-20T11:39:23;10.10;99.90
18880;DHT22;9572;52.378;13.404;2023-02-20T11:42:04;10.20;99.90
18880;DHT22;9572;52.378;13.404;2023-02-20T11:44:32;10.20;99.90
18880;DHT22;9572;52.378;13.404;2023-02-20T11:47:23;10.30;99.90
18880;DHT22;9572;52.378;13.404;2023-02-20T11:50:09;10.40;99.90
18880;DHT22;9572;52.378;13.404;2023-02-20T11:52:36;10.50;99.90
18880;DHT22;9572;52.378;13.404;2023-02-20T11:55:17;10.60;99.90
18880;DHT22;9572;52.378;13.404;2023-02-20T11:57:45;10.70;99.90
18880;DHT22;9572;52.378;13.404;2023-02-20T12:00:15;10.70;99.90
18880;DHT22;9572;52.378;13.404;2023-02-20T12:02:48;10.70;99.90
18880;DHT22;9572;52.378;13.404;2023-02-20T12:05:18;10.70;99.90
18880;DHT22;9572;52.378;13.404;2023-02-20T12:07:56;10.70;99.90
18880;DHT22;9572;52.378;13.404;2023-02-20T12:10:32;10.70;99.90
18880;DHT22;9572;52.378;13.404;2023-02-20T12:13:02;10.70;99.90
18880;DHT22;9572;52.378;13.404;2023-02-20T12:15:29;10.70;99.90
18880;DHT22;9572;52.378;13.404;2023-02-20T12:18:14;10.60;99.90
18880;DHT22;9572;52.378;13.404;2023-02-20T12:20:48;10.60;99.90
18880;DHT22;9572;52.378;13.404;2023-02-20T12:23:25;10.60;99.90
18880;DHT22;9572;52.378;13.404;2023-02-20T12:26:02;10.70;99.90
18880;DHT22;9572;52.378;13.404;2023-02-20T12:28:39;10.70;99.90
18880;DHT22;9572;52.378;13.404;2023-02-20T12:31:20;10.70;99.90
18880;DHT22;9572;52.378;13.404;2023-02-20T12:33:59;10.80;99.90
18880;DHT22;9572;52.378;13.404;2023-02-20T12:36:34;10.80;99.90
18880;DHT22;9572;52.378;13.404;2023-02-20T12:39:06;10.70;99.90
18880;DHT22;9572;52.378;13.404;2023-02-20T12:41:44;10.60;99.90
18880;DHT22;9572;52.378;13.404;2023-02-20T12:44:26;10.60;99.90
18880;DHT22;9572;52.378;13.404;2023-02-20T12:47:03;10.50;99.90
18880;DHT22;9572;52.378;13.404;2023-02-20T12:52:39;10.40;99.90
18880;DHT22;9572;52.378;13.404;2023-02-20T12:55:20;10.40;99.90
18880;DHT22;9572;52.378;13.404;2023-02-20T12:57:53;10.40;99.90
18880;DHT22;9572;52.378;13.404;2023-02-20T13:00:30;10.40;99.90
18880;DHT22;9572;52.378;13.404;2023-02-20T13:03:02;10.40;99.90
18880;DHT22;9572;52.378;13.404;2023-02-20T13:05:36;10.40;99.90
18880;DHT22;9572;52.378;13.404;2023-02-20T13:08:11;10.40;99.90
18880;DHT22;9572;52.378;13.404;2023-02-20T13:10:49;10.40;99.90
18880;DHT22;9572;52.378;13.404;2023-02-20T13:13:18;10.40;99.90
18880;DHT22;9572;52.378;13.404;2023-02-20T13:15:51;10.30;99.90
18880;DHT22;9572;52.378;13.404;2023-02-20T13:18:25;10.30;99.90
18880;DHT22;9572;52.378;13.404;2023-02-20T13:20:56;10.30;99.90
18880;DHT22;9572;52.378;13.404;2023-02-20T13:23:31;10.30;99.90
18880;DHT22;9572;52.378;13.404;2023-02-20T13:25:59;10.20;99.90
18880;DHT22;9572;52.378;13.404;2023-02-20T13:28:37;10.10;99.90
18880;DHT22;9572;52.378;13.404;2023-02-20T13:31:18;10.10;99.90
18880;DHT22;9572;52.378;13.404;2023-02-20T13:33:46;10.00;99.90
18880;DHT22;9572;52.378;13.404;2023-02-20T13:36:37;10.00;99.90
18880;DHT22;9572;52.378;13.404;2023-02-20T13:42:28;10.00;99.90
18880;DHT22;9572;52.378;13.404;2023-02-20T13:44:55;10.00;99.90
18880;DHT22;9572;52.378;13.404;2023-02-20T13:47:32;9.90;99.90
18880;DHT22;9572;52.378;13.404;2023-02-20T13:50:01;9.90;99.90
18880;DHT22;9572;52.378;13.404;2023-02-20T13:52:35;9.80;99.90
18880;DHT22;9572;52.378;13.404;2023-02-20T13:55:13;9.80;99.90
18880;DHT22;9572;52.378;13.404;2023-02-20T13:57:45;9.80;99.90
18880;DHT22;9572;52.378;13.404;2023-02-20T14:00:23;9.80;99.90
18880;DHT22;9572;52.378;13.404;2023-02-20T14:02:51;9.80;99.90
18880;DHT22;9572;52.378;13.404;2023-02-20T14:05:19;9.60;99.90
18880;DHT22;9572;52.378;13.404;2023-02-20T14:07:46;9.70;99.90
18880;DHT22;9572;52.378;13.404;2023-02-20T14:10:16;9.70;99.90
18880;DHT22;9572;52.378;13.404;2023-02-20T14:12:59;9.70;99.90
18880;DHT22;9572;52.378;13.404;2023-02-20T14:15:29;9.60;99.90
18880;DHT22;9572;52.378;13.404;2023-02-20T14:17:57;9.70;99.90
18880;DHT22;9572;52.378;13.404;2023-02-20T14:20:31;9.80;99.90
18880;DHT22;9572;52.378;13.404;2023-02-20T14:23:09;9.70;99.90
18880;DHT22;9572;52.378;13.404;2023-02-20T14:25:41;9.70;99.90
18880;DHT22;9572;52.378;13.404;2023-02-20T14:28:14;9.70;99.90
18880;DHT22;9572;52.378;13.404;2023-02-20T14:30:41;9.70;99.90
18880;DHT22;9572;52.378;13.404;2023-02-20T14:33:27;9.70;99.90
18880;DHT22;9572;52.378;13.404;2023-02-20T14:36:17;9.80;99.90
18880;DHT22;9572;52.378;13.404;2023-02-20T14:38:59;9.80;99.90
18880;DHT22;9572;52.378;13.404;2023-02-20T14:41:29;9.80;99.90
18880;DHT22;9572;52.378;13.404;2023-02-20T14:43:59;9.70;99.90
18880;DHT22;9572;52.378;13.404;2023-02-20T14:46:28;9.70;99.90
18880;DHT22;9572;52.378;13.404;2023-02-20T14:49:07;9.70;99.90
18880;DHT22;9572;52.378;13.404;2023-02-20T14:51:34;9.70;99.90
18880;DHT22;9572;52.378;13.404;2023-02-20T14:54:09;9.80;99.90
18880;DHT22;9572;52.378;13.404;2023-02-20T14:56:41;9.80;99.90
18880;DHT22;9572;52.378;13.404;2023-02-20T14:59:26;9.80;99.90
18880;DHT22;9572;52.378;13.404;2023-02-20T15:01:56;9.80;99.90
18880;DHT22;9572;52.378;13.404;2023-02-20T15:04:24;9.80;99.90
18880;DHT22;9572;52.378;13.404;2023-02-20T15:06:54;9.80;99.90
18880;DHT22;9572;52.378;13.404;2023-02-20T15:09:34;9.80;99.90
18880;DHT22;9572;52.378;13.404;2023-02-20T15:12:01;9.80;99.90
18880;DHT22;9572;52.378;13.404;2023-02-20T15:14:32;9.80;99.90
18880;DHT22;9572;52.378;13.404;2023-02-20T15:17:07;9.90;99.90
18880;DHT22;9572;52.378;13.404;2023-02-20T15:19:36;9.90;99.90
18880;DHT22;9572;52.378;13.404;2023-02-20T15:22:03;9.90;99.90
18880;DHT22;9572;52.378;13.404;2023-02-20T15:24:36;9.90;99.90
18880;DHT22;9572;52.378;13.404;2023-02-20T15:27:09;9.90;99.90
18880;DHT22;9572;52.378;13.404;2023-02-20T15:29:38;9.80;99.90
18880;DHT22;9572;52.378;13.404;2023-02-20T15:32:20;9.80;99.90
18880;DHT22;9572;52.378;13.404;2023-02-20T15:34:52;9.90;99.90
18880;DHT22;9572;52.378;13.404;2023-02-20T15:37:22;9.90;99.90
18880;DHT22;9572;52.378;13.404;2023-02-20T15:39:50;9.80;99.90
18880;DHT22;9572;52.378;13.404;2023-02-20T15:42:19;9.90;99.90
18880;DHT22;9572;52.378;13.404;2023-02-20T15:44:48;9.90;99.90
18880;DHT22;9572;52.378;13.404;2023-02-20T15:47:15;9.80;99.90
18880;DHT22;9572;52.378;13.404;2023-02-20T15:49:42;9.90;99.90
18880;DHT22;9572;52.378;13.404;2023-02-20T15:52:15;9.80;99.90
18880;DHT22;9572;52.378;13.404;2023-02-20T15:54:45;9.80;99.90
18880;DHT22;9572;52.378;13.404;2023-02-20T15:57:15;9.90;99.90
18880;DHT22;9572;52.378;13.404;2023-02-20T15:59:43;9.80;99.90
18880;DHT22;9572;52.378;13.404;2023-02-20T16:02:14;9.80;99.90
18880;DHT22;9572;52.378;13.404;2023-02-20T16:04:44;9.80;99.90
18880;DHT22;9572;52.378;13.404;2023-02-20T16:07:11;9.80;99.90
18880;DHT22;9572;52.378;13.404;2023-02-20T16:09:38;9.80;99.90
18880;DHT22;9572;52.378;13.404;2023-02-20T16:12:05;9.80;99.90
18880;DHT22;9572;52.378;13.404;2023-02-20T16:14:32;9.80;99.90
18880;DHT22;9572;52.378;13.404;2023-02-20T16:16:59;9.80;99.90